createdAt,value
2022-08-20T00:03:29.356Z,71.15
2022-08-20T00:07:33.070Z,71.13
2022-08-20T00:11:38.163Z,71.28
2022-08-20T00:15:42.414Z,71.04
2022-08-20T00:19:46.306Z,70.81
2022-08-20T00:23:52.443Z,70.92
2022-08-20T00:27:58.375Z,70.69
2022-08-20T00:32:01.697Z,71.16
2022-08-20T00:36:10.032Z,71.38
2022-08-20T00:40:22.274Z,71.40
2022-08-20T00:44:28.595Z,71.24
2022-08-20T00:48:34.817Z,71.36
2022-08-20T00:52:38.621Z,71.36
2022-08-20T00:56:44.666Z,70.97
2022-08-20T01:00:51.327Z,71.12
2022-08-20T01:04:56.204Z,71.30
2022-08-20T01:09:02.618Z,71.66
2022-08-20T01:13:10.646Z,71.61
2022-08-20T01:17:26.084Z,71.92
2022-08-20T01:21:32.915Z,72.17
2022-08-20T01:25:46.710Z,71.86
2022-08-20T01:29:51.361Z,72.11
2022-08-20T01:33:56.644Z,72.27
2022-08-20T01:38:00.356Z,72.37
2022-08-20T01:42:10.628Z,72.29
2022-08-20T01:46:14.878Z,72.46
2022-08-20T01:50:25.347Z,72.04
2022-08-20T01:54:30.350Z,72.01
2022-08-20T01:58:40.077Z,71.91
2022-08-20T02:02:45.037Z,71.84
2022-08-20T02:06:56.581Z,72.14
2022-08-20T02:11:01.046Z,72.58
2022-08-20T02:15:08.196Z,72.71
2022-08-20T02:19:14.586Z,73.02
2022-08-20T02:23:18.221Z,72.90
2022-08-20T02:27:24.024Z,72.84
2022-08-20T02:31:32.953Z,72.87
2022-08-20T02:35:39.757Z,73.35
2022-08-20T02:39:43.185Z,73.75
2022-08-20T02:43:47.149Z,73.58
2022-08-20T02:47:53.107Z,73.92
2022-08-20T02:51:56.643Z,74.28
2022-08-20T02:56:00.547Z,73.83
2022-08-20T03:00:05.967Z,74.16
2022-08-20T03:04:11.036Z,74.02
2022-08-20T03:08:16.437Z,73.73
2022-08-20T03:12:19.697Z,73.48
2022-08-20T03:16:23.221Z,73.99
2022-08-20T03:20:29.140Z,74.08
2022-08-20T03:24:33.215Z,74.64
2022-08-20T03:28:37.493Z,74.54
2022-08-20T03:32:42.305Z,74.87
2022-08-20T03:36:50.390Z,75.32
2022-08-20T03:40:54.046Z,76.31
2022-08-20T03:44:59.310Z,75.90
2022-08-20T03:49:02.883Z,76.31
2022-08-20T03:53:08.263Z,75.79
2022-08-20T03:57:17.346Z,75.64
2022-08-20T04:01:45.009Z,74.75
2022-08-20T04:05:45.154Z,74.67
2022-08-20T04:09:50.218Z,74.20
2022-08-20T04:13:54.017Z,73.68
2022-08-20T04:17:57.857Z,73.35
2022-08-20T04:22:02.205Z,73.43
2022-08-20T04:26:07.550Z,72.95
2022-08-20T04:30:12.798Z,72.93
2022-08-20T04:34:20.025Z,73.12
2022-08-20T04:38:24.219Z,72.83
2022-08-20T04:42:29.884Z,72.93
2022-08-20T04:46:33.705Z,72.90
2022-08-20T04:50:39.408Z,73.02
2022-08-20T04:54:44.321Z,73.35
2022-08-20T04:58:49.459Z,73.10
2022-08-20T05:02:52.910Z,72.88
2022-08-20T05:06:56.456Z,72.96
2022-08-20T05:11:24.993Z,72.93
2022-08-20T05:15:26.605Z,72.31
2022-08-20T05:19:30.818Z,72.47
2022-08-20T05:23:34.699Z,72.60
2022-08-20T05:27:38.589Z,71.84
2022-08-20T05:31:43.713Z,71.35
2022-08-20T05:35:47.964Z,71.56
2022-08-20T05:39:51.732Z,70.99
2022-08-20T05:43:54.867Z,70.80
2022-08-20T05:47:59.995Z,70.87
2022-08-20T05:52:06.947Z,71.07
2022-08-20T05:56:11.559Z,70.56
2022-08-20T06:00:16.519Z,70.07
2022-08-20T06:04:29.156Z,69.95
2022-08-20T06:08:34.163Z,69.43
2022-08-20T06:12:37.636Z,69.39
2022-08-20T06:16:56.304Z,69.31
2022-08-20T06:21:03.091Z,69.48
2022-08-20T06:25:09.179Z,68.99
2022-08-20T06:29:12.276Z,68.89
2022-08-20T06:33:16.239Z,69.43
2022-08-20T06:37:27.419Z,70.08
2022-08-20T06:41:37.170Z,69.89
2022-08-20T06:45:41.901Z,70.19
2022-08-20T06:49:46.179Z,70.97
2022-08-20T06:53:51.200Z,71.26
2022-08-20T06:58:01.571Z,70.54
2022-08-20T07:02:04.875Z,70.67
2022-08-20T07:06:08.990Z,70.74
2022-08-20T07:10:17.411Z,70.38
2022-08-20T07:14:21.075Z,70.34
2022-08-20T07:18:28.335Z,69.44
2022-08-20T07:22:32.339Z,69.15
2022-08-20T07:26:37.490Z,69.84
2022-08-20T07:30:59.434Z,70.16
2022-08-20T07:35:18.610Z,70.41
2022-08-20T07:39:22.321Z,70.00
2022-08-20T07:43:28.492Z,69.90
2022-08-20T07:47:34.620Z,69.88
2022-08-20T07:51:38.484Z,70.33
2022-08-20T07:55:42.169Z,70.44
2022-08-20T08:00:03.137Z,70.28
2022-08-20T08:04:08.089Z,70.25
2022-08-20T08:08:14.852Z,69.81
2022-08-20T08:12:20.054Z,70.44
2022-08-20T08:16:25.770Z,69.97
2022-08-20T08:20:29.299Z,69.40
2022-08-20T08:24:32.408Z,69.59
2022-08-20T08:28:37.583Z,69.76
2022-08-20T08:33:03.804Z,69.84
2022-08-20T08:37:07.883Z,69.85
2022-08-20T08:41:19.776Z,69.90
2022-08-20T08:45:24.202Z,68.70
2022-08-20T08:49:38.194Z,68.76
2022-08-20T08:53:47.227Z,67.33
2022-08-20T08:57:51.353Z,67.73
2022-08-20T09:01:58.455Z,67.35
2022-08-20T09:06:05.327Z,67.90
2022-08-20T09:10:09.833Z,66.73
2022-08-20T09:14:14.003Z,67.05
2022-08-20T09:18:17.059Z,65.91
2022-08-20T09:22:26.614Z,66.36
2022-08-20T09:26:30.318Z,67.07
2022-08-20T09:30:33.595Z,66.47
2022-08-20T09:34:38.953Z,66.40
2022-08-20T09:38:43.887Z,65.87
2022-08-20T09:42:47.653Z,65.71
2022-08-20T09:46:50.838Z,64.10
2022-08-20T09:50:54.362Z,64.70
2022-08-20T09:55:01.984Z,65.32
2022-08-20T09:59:06.003Z,65.04
2022-08-20T10:03:09.267Z,65.67
2022-08-20T10:07:12.828Z,64.58
2022-08-20T10:11:20.950Z,64.50
2022-08-20T10:15:24.587Z,64.60
2022-08-20T10:19:32.655Z,64.83
2022-08-20T10:23:35.854Z,65.48
2022-08-20T10:27:41.168Z,66.04
2022-08-20T10:31:45.007Z,66.44
2022-08-20T10:35:48.719Z,66.18
2022-08-20T10:39:54.351Z,65.24
2022-08-20T10:43:59.755Z,64.69
2022-08-20T10:48:03.848Z,64.88
2022-08-20T10:52:07.623Z,64.29
2022-08-20T10:56:15.780Z,64.65
2022-08-20T11:00:20.976Z,64.56
2022-08-20T11:04:24.196Z,64.77
2022-08-20T11:08:34.329Z,64.15
2022-08-20T11:12:39.854Z,63.07
2022-08-20T11:16:48.175Z,63.62
2022-08-20T11:20:51.947Z,63.24
2022-08-20T11:24:55.947Z,64.59
2022-08-20T11:28:59.584Z,64.39
2022-08-20T11:33:04.549Z,65.49
2022-08-20T11:37:08.229Z,65.78
2022-08-20T11:41:11.882Z,66.10
2022-08-20T11:45:16.446Z,66.75
2022-08-20T11:49:21.838Z,67.25
2022-08-20T11:53:25.019Z,67.23
2022-08-20T11:57:30.353Z,67.66
2022-08-20T12:01:34.165Z,67.55
2022-08-20T12:05:39.496Z,67.27
2022-08-20T12:09:50.787Z,67.04
2022-08-20T12:13:59.815Z,67.59
2022-08-20T12:18:09.220Z,67.46
2022-08-20T12:22:23.146Z,67.20
2022-08-20T12:26:28.512Z,67.06
2022-08-20T12:30:32.531Z,66.20
2022-08-20T12:34:36.536Z,65.44
2022-08-20T12:38:41.459Z,65.69
2022-08-20T12:42:45.849Z,65.37
2022-08-20T12:46:49.163Z,66.36
2022-08-20T12:50:52.871Z,66.45
2022-08-20T12:54:58.883Z,65.80
2022-08-20T12:59:02.336Z,65.82
2022-08-20T13:03:08.120Z,67.15
2022-08-20T13:07:13.265Z,67.49
2022-08-20T13:11:17.937Z,66.02
2022-08-20T13:15:22.926Z,65.38
2022-08-20T13:19:26.687Z,64.76
2022-08-20T13:23:29.889Z,64.01
2022-08-20T13:27:38.851Z,63.53
2022-08-20T13:31:42.889Z,64.04
2022-08-20T13:35:46.562Z,64.67
2022-08-20T13:39:49.984Z,64.75
2022-08-20T13:43:55.322Z,65.09
2022-08-20T13:47:58.955Z,65.00
2022-08-20T13:52:02.547Z,65.01
2022-08-20T13:56:06.599Z,65.77
2022-08-20T14:00:16.694Z,65.86
2022-08-20T14:04:20.236Z,65.68
2022-08-20T14:08:25.839Z,66.56
2022-08-20T14:12:30.985Z,67.00
2022-08-20T14:16:38.001Z,66.35
2022-08-20T14:20:41.846Z,66.61
2022-08-20T14:24:50.245Z,66.42
2022-08-20T14:28:53.898Z,66.74
2022-08-20T14:32:58.957Z,66.79
2022-08-20T14:37:11.885Z,66.95
2022-08-20T14:41:15.433Z,66.89
2022-08-20T14:45:19.695Z,67.04
2022-08-20T14:49:24.876Z,66.69
2022-08-20T14:53:28.064Z,67.01
2022-08-20T14:57:31.603Z,66.99
2022-08-20T15:01:35.144Z,66.61
2022-08-20T15:05:41.281Z,67.41
2022-08-20T15:09:44.551Z,67.13
2022-08-20T15:13:48.113Z,67.51
2022-08-20T15:17:53.818Z,67.21
2022-08-20T15:21:59.016Z,67.73
2022-08-20T15:26:02.970Z,67.84
2022-08-20T15:30:08.872Z,68.25
2022-08-20T15:34:17.615Z,68.34
2022-08-20T15:38:22.673Z,68.49
2022-08-20T15:42:26.444Z,69.13
2022-08-20T15:46:31.627Z,69.45
2022-08-20T15:50:58.060Z,69.76
2022-08-20T15:55:03.853Z,70.42
2022-08-20T15:59:20.459Z,70.14
2022-08-20T16:03:52.259Z,70.22
2022-08-20T16:08:23.383Z,71.51
2022-08-20T16:12:35.187Z,70.59
2022-08-20T16:16:45.558Z,70.35
2022-08-20T16:20:51.578Z,70.35
2022-08-20T16:24:56.315Z,71.19
2022-08-20T16:29:11.386Z,71.33
2022-08-20T16:33:22.192Z,71.46
2022-08-20T16:37:31.280Z,71.32
2022-08-20T16:41:41.486Z,71.53
2022-08-20T16:45:51.972Z,70.88
2022-08-20T16:50:04.835Z,70.64
2022-08-20T16:54:08.381Z,70.04
2022-08-20T16:58:11.742Z,70.72
2022-08-20T17:02:21.681Z,71.00
2022-08-20T17:06:30.850Z,71.97
2022-08-20T17:10:36.806Z,72.85
2022-08-20T17:14:49.770Z,72.05
2022-08-20T17:18:56.094Z,73.00
2022-08-20T17:23:12.330Z,72.50
2022-08-20T17:27:30.844Z,72.53
2022-08-20T17:31:38.814Z,72.70
2022-08-20T17:35:50.843Z,73.00
2022-08-20T17:39:57.112Z,73.37
2022-08-20T17:44:02.380Z,72.96
2022-08-20T17:48:09.750Z,72.97
2022-08-20T17:52:24.960Z,73.06
2022-08-20T17:56:36.476Z,73.03
2022-08-20T18:00:40.068Z,73.48
2022-08-20T18:04:45.178Z,73.06
2022-08-20T18:08:58.805Z,73.02
2022-08-20T18:13:13.061Z,73.22
2022-08-20T18:17:28.888Z,73.10
2022-08-20T18:21:57.793Z,73.25
2022-08-20T18:26:09.951Z,73.36
2022-08-20T18:30:19.856Z,73.23
2022-08-20T18:34:37.875Z,73.27
2022-08-20T18:38:44.007Z,73.79
2022-08-20T18:42:49.585Z,73.90
2022-08-20T18:46:55.448Z,73.81
2022-08-20T18:55:33.963Z,73.63
2022-08-20T18:59:44.736Z,73.47
2022-08-20T19:03:52.150Z,73.71
2022-08-20T19:07:58.245Z,73.86
2022-08-20T19:12:18.051Z,73.95
2022-08-20T19:16:28.050Z,73.83
2022-08-20T19:20:34.739Z,74.15
2022-08-20T19:24:43.765Z,74.42
2022-08-20T19:28:49.934Z,73.80
2022-08-20T19:32:54.655Z,74.24
2022-08-20T19:37:05.200Z,74.01
2022-08-20T19:41:31.049Z,74.47
2022-08-20T19:45:40.484Z,74.45
2022-08-20T19:49:58.735Z,74.28
2022-08-20T19:54:04.446Z,74.26
2022-08-20T19:58:25.978Z,74.17
2022-08-20T20:02:33.162Z,74.29
2022-08-20T20:06:42.810Z,74.06
2022-08-20T20:10:53.960Z,74.50
2022-08-20T20:14:57.471Z,73.95
2022-08-20T20:19:24.787Z,74.30
2022-08-20T20:23:45.792Z,73.81
2022-08-20T20:27:51.694Z,74.08
2022-08-20T20:31:59.128Z,74.04
2022-08-20T20:36:05.766Z,73.93
2022-08-20T20:40:21.238Z,73.90
2022-08-20T20:44:27.457Z,74.17
2022-08-20T20:48:40.145Z,74.33
2022-08-20T20:53:01.905Z,73.68
2022-08-20T20:57:09.469Z,74.01
2022-08-20T21:01:12.812Z,73.67
2022-08-20T21:05:17.657Z,73.81
2022-08-20T21:09:21.444Z,73.60
2022-08-20T21:13:26.569Z,73.77
2022-08-20T21:17:29.922Z,73.60
2022-08-20T21:21:33.205Z,73.63
2022-08-20T21:25:37.183Z,73.51
2022-08-20T21:29:41.820Z,73.74
2022-08-20T21:33:45.173Z,73.63
2022-08-20T21:37:48.385Z,73.77
2022-08-20T21:41:51.833Z,73.78
2022-08-20T21:45:56.410Z,74.00
2022-08-20T21:49:59.975Z,73.91
2022-08-20T21:54:03.385Z,74.26
2022-08-20T21:58:07.197Z,74.39
2022-08-20T22:02:12.500Z,74.33
2022-08-20T22:06:16.350Z,74.19
2022-08-20T22:10:20.386Z,74.40
2022-08-20T22:14:24.673Z,74.09
2022-08-20T22:18:29.876Z,74.41
2022-08-20T22:22:33.258Z,74.30
2022-08-20T22:26:38.660Z,74.26
2022-08-20T22:30:43.016Z,74.28
2022-08-20T22:34:48.086Z,74.30
2022-08-20T22:38:54.674Z,74.26
2022-08-20T22:42:58.078Z,74.45
2022-08-20T22:47:06.907Z,74.44
2022-08-20T22:51:16.354Z,74.51
2022-08-20T22:55:20.106Z,74.68
2022-08-20T22:59:25.112Z,74.52
2022-08-20T23:03:40.187Z,74.65
2022-08-20T23:07:46.609Z,74.67
2022-08-20T23:11:51.919Z,74.65
2022-08-20T23:15:55.605Z,74.62
2022-08-20T23:19:59.775Z,74.76
2022-08-20T23:24:05.058Z,74.62
2022-08-20T23:28:09.767Z,74.94
2022-08-20T23:32:14.249Z,74.92
2022-08-20T23:36:24.499Z,74.82
2022-08-20T23:40:30.996Z,74.98
2022-08-20T23:44:34.487Z,75.05
2022-08-20T23:48:38.476Z,75.24
2022-08-20T23:52:41.746Z,75.07
2022-08-20T23:56:46.961Z,75.29
